, AK

(GMT )
Denali Park

Weather History for PAIN - August, 2013

Change the Weather History Date:

Thursday, August 8, 2013

  Actual Average Record
Temperature  
Mean Temperature 62 °F -  
Max Temperature 71 °F 62 °F 79 °F (1968)
Min Temperature 53 °F 42 °F 29 °F (1959)
Degree Days  
Heating Degree Days 3    
Growing Degree Days 12 (Base 50)    
Moisture  
Dew Point 42 °F    
Average Humidity 49    
Maximum Humidity 67    
Minimum Humidity 33    
Precipitation  
Precipitation 0.00 in - - ()
Sea Level Pressure  
Sea Level Pressure 29.71 in    
Wind  
Wind Speed 4 mph (South)    
Max Wind Speed 13 mph    
Max Gust Speed 22 mph    
Visibility 10 miles    
Events      
Averages and records for this station are not official NWS values.
T = Trace of Precipitation, MM = Missing Value Source: NWS Daily Summary

Daily Weather History Graph

Daily Weather History Graph

Search for Another Location

Airport or City:

Trip Planner

Search our weather history database for the weather conditions in past years. The results will help you decide how hot, cold, wet, or windy it might be!

Date:

Astronomy

Aug. 08, 2013 Rise Set
Actual Time 5:29 AM AKDT 10:30 PM AKDT
Civil Twilight 4:18 AM AKDT 11:40 PM AKDT
Nautical Twilight 2:33 AM AKDT 1:28 AM AKDT
Astronomical Twilight Sun does not set Sun does not set
Moon 8:33 AM AKDT (8/8) 9:56 PM AKDT (8/8)
Length of Visible Light 19h 22m
Length of Day
17h 01m
Waxing Crescent, 4% of the Moon is Illuminated
Aug 8
Waxing Crescent
Aug 14
First Quarter
Aug 20
Full
Aug 28
Last Quarter
Sep 5
New

Hourly Weather History & Observations

Time (AKDT) Temp. Dew Point Humidity Pressure Visibility Wind Dir Wind Speed Gust Speed Precip Events Conditions
12:16 AM 57.2 °F 42.8 °F 59% 29.70 in 10.0 mi Calm Calm - N/A   Unknown
12:36 AM 57.2 °F 42.8 °F 59% 29.70 in 10.0 mi Calm Calm - N/A   Unknown
12:56 AM 57.2 °F 42.8 °F 59% 29.71 in 10.0 mi Calm Calm - N/A   Unknown
1:16 AM 57.2 °F 42.8 °F 59% 29.71 in 10.0 mi Calm Calm - N/A   Unknown
1:36 AM 59.0 °F 39.2 °F 48% 29.71 in 10.0 mi Calm Calm - N/A   Unknown
1:56 AM 59.0 °F 42.8 °F 55% 29.73 in 10.0 mi SSE 5.8 mph - N/A   Unknown
2:16 AM 57.2 °F 42.8 °F 59% 29.73 in 10.0 mi Calm Calm - N/A   Unknown
2:36 AM 59.0 °F 39.2 °F 48% 29.73 in 10.0 mi SSW 12.7 mph 18.4 mph N/A   Unknown
2:56 AM 60.8 °F 39.2 °F 45% 29.73 in 10.0 mi SSW 12.7 mph 20.7 mph N/A   Unknown
3:16 AM 60.8 °F 39.2 °F 45% 29.74 in 10.0 mi South 10.4 mph 18.4 mph N/A   Unknown
3:36 AM 59.0 °F 39.2 °F 48% 29.73 in 10.0 mi SSE 4.6 mph - N/A   Unknown
3:56 AM 57.2 °F 42.8 °F 59% 29.73 in 10.0 mi South 3.5 mph - N/A   Unknown
4:16 AM 57.2 °F 42.8 °F 59% 29.74 in 10.0 mi Calm Calm - N/A   Unknown
4:36 AM 55.4 °F 42.8 °F 63% 29.74 in 10.0 mi Calm Calm - N/A   Unknown
4:56 AM 55.4 °F 42.8 °F 63% 29.74 in 10.0 mi Calm Calm - N/A   Unknown
5:16 AM 55.4 °F 42.8 °F 63% 29.74 in 10.0 mi Calm Calm - N/A   Unknown
5:36 AM 53.6 °F 42.8 °F 67% 29.74 in 10.0 mi Calm Calm - N/A   Unknown
5:56 AM 53.6 °F 42.8 °F 67% 29.74 in 10.0 mi Calm Calm - N/A   Unknown
6:16 AM 53.6 °F 42.8 °F 67% 29.74 in 10.0 mi Calm Calm - N/A   Unknown
6:36 AM 53.6 °F 42.8 °F 67% 29.74 in 10.0 mi Calm Calm - N/A   Unknown
6:56 AM 53.6 °F 42.8 °F 67% 29.73 in 10.0 mi Calm Calm - N/A   Unknown
7:16 AM 53.6 °F 42.8 °F 67% 29.73 in 10.0 mi SW 4.6 mph - N/A   Unknown
7:36 AM 53.6 °F 42.8 °F 67% 29.73 in 10.0 mi Calm Calm - N/A   Unknown
7:56 AM 55.4 °F 42.8 °F 63% 29.73 in 10.0 mi Calm Calm - N/A   Unknown
8:16 AM 57.2 °F 41.0 °F 55% 29.72 in 10.0 mi Calm Calm - N/A   Unknown
8:36 AM 60.8 °F 42.8 °F 52% 29.72 in 10.0 mi SE 4.6 mph - N/A   Unknown
8:56 AM 59.0 °F 42.8 °F 55% 29.72 in 10.0 mi South 4.6 mph - N/A   Unknown
9:16 AM 59.0 °F 42.8 °F 55% 29.71 in 10.0 mi South 4.6 mph - N/A   Unknown
9:36 AM 60.8 °F 41.0 °F 48% 29.71 in 10.0 mi South 8.1 mph - N/A   Unknown
9:56 AM 62.6 °F 39.2 °F 42% 29.71 in 10.0 mi South 6.9 mph - N/A   Unknown
10:16 AM 62.6 °F 39.2 °F 42% 29.71 in 10.0 mi South 4.6 mph - N/A   Unknown
10:36 AM 66.2 °F 39.2 °F 37% 29.70 in 10.0 mi SSE 3.5 mph - N/A   Unknown
10:56 AM 66.2 °F 41.0 °F 40% 29.71 in 10.0 mi South 4.6 mph - N/A   Unknown
11:16 AM 64.4 °F 39.2 °F 40% 29.71 in 10.0 mi South 8.1 mph - N/A   Unknown
11:36 AM 66.2 °F 39.2 °F 37% 29.71 in 10.0 mi SSE 8.1 mph - N/A   Unknown
11:56 AM 68.0 °F 39.2 °F 35% 29.71 in 5.0 mi SSE 8.1 mph 18.4 mph N/A   Unknown
12:16 PM 69.8 °F 39.2 °F 33% 29.71 in 10.0 mi SSE 9.2 mph 17.3 mph N/A   Unknown
12:36 PM 68.0 °F 39.2 °F 35% 29.71 in 10.0 mi South 5.8 mph 17.3 mph N/A   Unknown
12:56 PM 69.8 °F 39.2 °F 33% 29.71 in 10.0 mi South 8.1 mph 21.9 mph N/A   Unknown
1:16 PM 66.2 °F 39.2 °F 37% 29.71 in 10.0 mi South 8.1 mph 17.3 mph N/A   Unknown
1:36 PM 66.2 °F 41.0 °F 40% 29.72 in 10.0 mi South 4.6 mph 19.6 mph N/A   Unknown
1:56 PM 66.2 °F 42.8 °F 43% 29.71 in 10.0 mi South 6.9 mph - N/A   Unknown
2:16 PM 66.2 °F 42.8 °F 43% 29.71 in 10.0 mi South 6.9 mph - N/A   Unknown
2:36 PM 69.8 °F 42.8 °F 38% 29.70 in 10.0 mi South 10.4 mph 18.4 mph N/A   Unknown
2:56 PM 68.0 °F 41.0 °F 37% 29.70 in 10.0 mi South 9.2 mph 17.3 mph N/A   Unknown
3:16 PM 69.8 °F 42.8 °F 38% 29.68 in 10.0 mi South 10.4 mph 19.6 mph N/A   Unknown
3:36 PM 69.8 °F 41.0 °F 35% 29.69 in 10.0 mi South 11.5 mph 20.7 mph N/A   Unknown
3:56 PM 69.8 °F 41.0 °F 35% 29.69 in 10.0 mi South 9.2 mph 18.4 mph N/A   Unknown
4:16 PM 71.6 °F 41.0 °F 33% 29.69 in 10.0 mi South 6.9 mph - N/A   Unknown
4:36 PM 69.8 °F 41.0 °F 35% 29.68 in 10.0 mi SSW 10.4 mph 19.6 mph N/A   Unknown
4:56 PM 69.8 °F 41.0 °F 35% 29.67 in 10.0 mi SSE 8.1 mph 17.3 mph N/A   Unknown
5:16 PM 69.8 °F 42.8 °F 38% 29.68 in 10.0 mi South 6.9 mph 19.6 mph N/A   Unknown
5:36 PM 69.8 °F 42.8 °F 38% 29.68 in 10.0 mi South 5.8 mph - N/A   Unknown
5:56 PM 69.8 °F 42.8 °F 38% 29.67 in 10.0 mi SSE 8.1 mph 16.1 mph N/A   Unknown
6:16 PM 69.8 °F 42.8 °F 38% 29.67 in 10.0 mi South 10.4 mph - N/A   Unknown
6:36 PM 69.8 °F 42.8 °F 38% 29.67 in 10.0 mi SSE 6.9 mph - N/A   Unknown
6:56 PM 69.8 °F 42.8 °F 38% 29.67 in 10.0 mi SSE 6.9 mph - N/A   Unknown
7:16 PM 68.0 °F 44.6 °F 43% 29.67 in 10.0 mi SE 8.1 mph - N/A   Unknown
7:36 PM 66.2 °F 44.6 °F 46% 29.67 in 10.0 mi South 8.1 mph - N/A   Unknown
7:56 PM 66.2 °F 44.6 °F 46% 29.68 in 10.0 mi South 9.2 mph 19.6 mph N/A   Unknown
8:16 PM 66.2 °F 46.4 °F 49% 29.68 in 10.0 mi SSE 8.1 mph 18.4 mph N/A   Unknown
8:36 PM 62.6 °F 48.2 °F 59% 29.68 in 10.0 mi SSE 4.6 mph - N/A   Unknown
8:56 PM 62.6 °F 46.4 °F 55% 29.69 in 10.0 mi SSE 3.5 mph - N/A   Unknown
9:16 PM 62.6 °F 48.2 °F 59% 29.69 in 10.0 mi South 5.8 mph - N/A   Unknown
9:36 PM 62.6 °F 46.4 °F 55% 29.69 in 10.0 mi South 5.8 mph - N/A   Unknown
9:56 PM 62.6 °F 44.6 °F 52% 29.70 in 10.0 mi South 6.9 mph - N/A   Unknown
10:16 PM 62.6 °F 44.6 °F 52% 29.70 in 10.0 mi SSE 6.9 mph - N/A   Unknown
10:36 PM 60.8 °F 44.6 °F 55% 29.71 in 10.0 mi South 5.8 mph - N/A   Unknown
10:56 PM 60.8 °F 44.6 °F 55% 29.71 in 10.0 mi South 8.1 mph 19.6 mph N/A   Unknown
11:16 PM 60.8 °F 44.6 °F 55% 29.71 in 10.0 mi South 10.4 mph 17.3 mph N/A   Unknown
11:36 PM 59.0 °F 44.6 °F 59% 29.72 in 10.0 mi South 4.6 mph - N/A   Unknown
11:56 PM 59.0 °F 44.6 °F 59% 29.72 in 10.0 mi South 5.8 mph - N/A   Unknown